Time;durP1;ratioP1;P1;durP2;ratioP2;P2;SDS_P1;SDS_P2;PMS_P1;PMS_P2;Temp;Humidity;BMP_temperature;BMP_pressure;BME280_temperature;BME280_humidity;BME280_pressure;Samples;Min_cycle;Max_cycle;Signal;HPM_P1;HPM_P2
2023/04/04 00:00:45;;;;;;;4.50;3.00;;;2.90;99.90;;;;;;4859777;29;20334;-55
2023/04/04 00:03:14;;;;;;;3.57;3.07;;;2.80;99.90;;;;;;4858827;29;20228;-57
2023/04/04 00:05:44;;;;;;;3.87;3.17;;;2.80;99.90;;;;;;4860856;29;20291;-56
2023/04/04 00:08:13;;;;;;;3.40;3.10;;;2.80;99.90;;;;;;4859847;29;20231;-56
2023/04/04 00:10:41;;;;;;;8.03;3.20;;;2.70;99.90;;;;;;4863587;29;20211;-54
2023/04/04 00:13:10;;;;;;;3.37;3.07;;;2.60;99.90;;;;;;4858921;29;20204;-57
2023/04/04 00:15:38;;;;;;;5.23;3.10;;;2.60;99.90;;;;;;4857035;29;20223;-56
2023/04/04 00:18:06;;;;;;;3.00;2.80;;;2.50;99.90;;;;;;4861069;29;20231;-55
2023/04/04 00:20:34;;;;;;;5.43;2.90;;;2.50;99.90;;;;;;4856630;29;20251;-57
2023/04/04 00:23:04;;;;;;;7.90;3.47;;;2.50;99.90;;;;;;4861943;29;20227;-57
2023/04/04 00:25:32;;;;;;;6.23;3.27;;;2.40;99.90;;;;;;4857518;29;20246;-53
2023/04/04 00:28:00;;;;;;;7.03;3.73;;;2.40;99.90;;;;;;4859463;29;20248;-57
2023/04/04 00:30:29;;;;;;;3.57;3.27;;;2.40;99.90;;;;;;4863901;29;20227;-56
2023/04/04 00:32:57;;;;;;;3.47;3.17;;;2.30;99.90;;;;;;4859269;29;20231;-57
2023/04/04 00:35:25;;;;;;;4.63;3.20;;;2.30;99.90;;;;;;4857263;29;20247;-57
2023/04/04 00:37:54;;;;;;;6.40;3.20;;;2.20;99.90;;;;;;4851090;29;20235;-56
2023/04/04 00:40:24;;;;;;;3.47;3.17;;;2.20;99.90;;;;;;4851389;29;20249;-55
2023/04/04 00:42:53;;;;;;;4.87;3.30;;;2.20;99.90;;;;;;4858462;29;20279;-55
2023/04/04 00:45:21;;;;;;;3.37;3.07;;;2.20;99.90;;;;;;4853501;29;20239;-57
2023/04/04 00:47:51;;;;;;;4.50;3.47;;;2.20;99.90;;;;;;4853218;29;20224;-57
2023/04/04 00:50:19;;;;;;;7.37;3.40;;;2.10;99.90;;;;;;4854883;29;20259;-57
2023/04/04 00:52:47;;;;;;;4.03;3.63;;;2.10;99.90;;;;;;4852808;29;20551;-54
2023/04/04 00:55:16;;;;;;;4.90;3.50;;;2.10;99.90;;;;;;4853614;29;20241;-57
2023/04/04 00:57:46;;;;;;;5.67;3.47;;;2.10;99.90;;;;;;4860050;29;20900;-56
2023/04/04 01:00:15;;;;;;;4.60;3.40;;;2.00;99.90;;;;;;4853633;29;20342;-56
2023/04/04 01:02:44;;;;;;;9.17;4.40;;;1.90;99.90;;;;;;4858276;29;20247;-57
2023/04/04 01:05:12;;;;;;;5.13;3.93;;;1.90;99.90;;;;;;4861362;29;20237;-57
2023/04/04 01:07:41;;;;;;;5.17;3.40;;;1.70;99.90;;;;;;4854973;29;20199;-55
2023/04/04 01:10:11;;;;;;;4.73;3.60;;;1.70;99.90;;;;;;4860081;29;20238;-56
2023/04/04 01:12:41;;;;;;;4.67;3.90;;;1.60;99.90;;;;;;4859602;29;20279;-56
2023/04/04 01:15:11;;;;;;;3.60;3.30;;;1.50;99.90;;;;;;4857050;29;20227;-56
2023/04/04 01:17:42;;;;;;;5.70;3.40;;;1.50;99.90;;;;;;4853684;29;20607;-56
2023/04/04 01:20:14;;;;;;;3.60;3.40;;;1.50;99.90;;;;;;4856944;29;20235;-55
2023/04/04 01:22:47;;;;;;;6.50;3.53;;;1.40;99.90;;;;;;4854775;29;20536;-56
2023/04/04 01:25:16;;;;;;;4.33;3.43;;;1.40;99.90;;;;;;4856387;29;20551;-55
2023/04/04 01:27:46;;;;;;;7.40;3.30;;;1.30;99.90;;;;;;4856129;29;20247;-55
2023/04/04 01:30:16;;;;;;;5.63;3.20;;;1.30;99.90;;;;;;4852365;29;20266;-56
2023/04/04 01:32:49;;;;;;;4.57;3.40;;;1.30;99.90;;;;;;4860767;29;20239;-55
2023/04/04 01:35:26;;;;;;;3.80;3.50;;;1.20;99.90;;;;;;4852435;29;20241;-56
2023/04/04 01:38:01;;;;;;;9.10;3.90;;;1.20;99.90;;;;;;4851760;29;20714;-56
2023/04/04 01:40:34;;;;;;;5.10;3.50;;;1.20;99.90;;;;;;4859064;29;20263;-54
2023/04/04 01:43:04;;;;;;;6.27;3.57;;;1.20;99.90;;;;;;4861676;29;20281;-55
2023/04/04 01:45:32;;;;;;;4.10;3.50;;;1.20;99.90;;;;;;4856922;29;20219;-54
2023/04/04 01:48:00;;;;;;;5.73;3.60;;;1.20;99.90;;;;;;4855362;29;20271;-57
2023/04/04 01:50:29;;;;;;;7.30;3.67;;;1.10;99.90;;;;;;4859824;29;20223;-57
2023/04/04 01:52:57;;;;;;;6.77;3.67;;;1.10;99.90;;;;;;4854448;29;20504;-57
2023/04/04 01:55:25;;;;;;;4.70;3.50;;;1.10;99.90;;;;;;4853924;29;20211;-57
2023/04/04 01:57:54;;;;;;;5.37;3.60;;;1.10;99.90;;;;;;4858923;29;20231;-55
2023/04/04 02:00:23;;;;;;;5.47;3.07;;;1.10;99.90;;;;;;4859282;29;20259;-56
2023/04/04 02:02:51;;;;;;;5.43;3.53;;;1.00;99.90;;;;;;4855907;29;20219;-56
2023/04/04 02:05:22;;;;;;;5.23;3.47;;;0.90;99.90;;;;;;4853544;29;20582;-54
2023/04/04 02:07:50;;;;;;;7.87;3.80;;;0.90;99.90;;;;;;4855593;29;20624;-56
2023/04/04 02:10:18;;;;;;;5.17;3.40;;;0.80;99.90;;;;;;4858745;29;20196;-56
2023/04/04 02:12:47;;;;;;;7.67;3.90;;;0.80;99.90;;;;;;4854348;29;20284;-56
2023/04/04 02:15:16;;;;;;;8.53;3.90;;;0.70;99.90;;;;;;4856128;29;20310;-56
2023/04/04 02:17:49;;;;;;;5.37;3.60;;;0.70;99.90;;;;;;4854486;29;20251;-55
2023/04/04 02:20:18;;;;;;;4.37;3.70;;;0.60;99.90;;;;;;4846651;29;20721;-56
2023/04/04 02:22:53;;;;;;;4.30;3.77;;;0.60;99.90;;;;;;4854781;29;20214;-56
2023/04/04 02:25:23;;;;;;;4.53;3.67;;;0.60;99.90;;;;;;4858452;29;20215;-55
2023/04/04 02:27:51;;;;;;;4.77;3.57;;;0.60;99.90;;;;;;4853331;29;20272;-57
2023/04/04 02:30:19;;;;;;;8.53;4.03;;;0.50;99.90;;;;;;4860168;29;20807;-56
2023/04/04 02:32:49;;;;;;;7.07;4.17;;;0.50;99.90;;;;;;4857096;29;20219;-56
2023/04/04 02:35:17;;;;;;;8.63;3.80;;;0.50;99.90;;;;;;4851763;29;20223;-55
2023/04/04 02:37:46;;;;;;;10.87;3.73;;;0.50;99.90;;;;;;4858628;29;20195;-57
2023/04/04 02:40:15;;;;;;;3.33;3.00;;;0.60;99.90;;;;;;4856466;29;20219;-55
2023/04/04 02:42:44;;;;;;;7.97;3.90;;;0.70;99.90;;;;;;4853826;29;20830;-56
2023/04/04 02:45:13;;;;;;;5.43;4.00;;;0.70;99.90;;;;;;4852826;29;20231;-55
2023/04/04 02:47:42;;;;;;;7.37;3.90;;;0.70;99.90;;;;;;4857442;29;20295;-56
2023/04/04 02:50:12;;;;;;;3.90;3.20;;;0.80;99.90;;;;;;4859363;29;20635;-55
2023/04/04 02:52:40;;;;;;;8.07;3.70;;;0.80;99.90;;;;;;4858076;29;20204;-55
2023/04/04 02:55:09;;;;;;;6.97;3.50;;;0.80;99.90;;;;;;4853334;29;20196;-56
2023/04/04 02:57:39;;;;;;;3.80;3.47;;;0.70;99.90;;;;;;4848547;29;20642;-54
2023/04/04 03:00:10;;;;;;;3.73;3.50;;;0.70;99.90;;;;;;4852650;29;20308;-54
2023/04/04 03:02:38;;;;;;;4.93;3.20;;;0.60;99.90;;;;;;4849777;29;20266;-56
2023/04/04 03:05:07;;;;;;;7.43;3.60;;;0.50;99.90;;;;;;4854885;29;20668;-55
2023/04/04 03:07:37;;;;;;;6.63;3.63;;;0.40;99.90;;;;;;4856727;29;20785;-56
2023/04/04 03:10:06;;;;;;;4.07;3.73;;;0.30;99.90;;;;;;4855313;29;20207;-56
2023/04/04 03:12:34;;;;;;;3.80;3.50;;;0.20;99.90;;;;;;4857081;29;20216;-56
2023/04/04 03:15:03;;;;;;;5.80;4.00;;;0.10;99.90;;;;;;4852814;29;20224;-56
2023/04/04 03:17:31;;;;;;;6.43;3.97;;;0.00;99.90;;;;;;4857828;29;20228;-56
2023/04/04 03:19:59;;;;;;;4.13;3.73;;;0.00;99.90;;;;;;4857166;29;20243;-56
2023/04/04 03:22:28;;;;;;;4.10;3.80;;;-0.10;99.90;;;;;;4855419;29;20200;-55
2023/04/04 03:24:57;;;;;;;4.60;4.30;;;-0.20;99.90;;;;;;4855025;29;20361;-56
2023/04/04 03:27:25;;;;;;;8.77;4.27;;;-0.20;99.90;;;;;;4850832;29;20273;-55
2023/04/04 03:29:55;;;;;;;5.40;4.07;;;-0.30;99.90;;;;;;4855885;29;20227;-55
2023/04/04 03:32:23;;;;;;;8.47;4.30;;;-0.30;99.90;;;;;;4857770;29;20226;-55
2023/04/04 03:34:52;;;;;;;9.87;4.17;;;-0.30;99.90;;;;;;4859850;29;20200;-56
2023/04/04 03:37:20;;;;;;;4.53;4.17;;;-0.30;99.90;;;;;;4850941;29;20689;-56
2023/04/04 03:39:49;;;;;;;4.40;4.00;;;-0.40;99.90;;;;;;4854402;29;20238;-56
2023/04/04 03:42:18;;;;;;;5.03;4.30;;;-0.40;99.90;;;;;;4857656;29;20247;-57
2023/04/04 03:44:46;;;;;;;5.17;3.77;;;-0.40;99.90;;;;;;4857895;29;20381;-56
2023/04/04 03:47:15;;;;;;;6.67;4.57;;;-0.40;99.90;;;;;;4851429;29;20240;-56
2023/04/04 03:49:43;;;;;;;7.43;4.23;;;-0.50;99.90;;;;;;4854895;29;20271;-55
2023/04/04 03:52:11;;;;;;;6.77;4.27;;;-0.50;99.90;;;;;;4854405;29;20195;-56
2023/04/04 03:54:40;;;;;;;6.40;4.30;;;-0.50;99.90;;;;;;4856632;29;20782;-56
2023/04/04 03:57:08;;;;;;;5.13;4.30;;;-0.60;99.90;;;;;;4855333;29;20228;-56
2023/04/04 03:59:38;;;;;;;6.07;4.10;;;-0.60;99.90;;;;;;4858549;29;20235;-56
2023/04/04 04:02:06;;;;;;;8.37;4.50;;;-0.60;99.90;;;;;;4853514;29;20310;-56
2023/04/04 04:04:34;;;;;;;7.23;4.37;;;-0.60;99.90;;;;;;4850065;29;20736;-56
2023/04/04 04:07:03;;;;;;;6.70;4.67;;;-0.70;99.90;;;;;;4859936;29;20211;-55
2023/04/04 04:09:31;;;;;;;5.70;4.57;;;-0.70;99.90;;;;;;4855609;29;20282;-56
2023/04/04 04:12:00;;;;;;;6.43;4.70;;;-0.70;99.90;;;;;;4872917;29;21338;-56
2023/04/04 04:14:28;;;;;;;7.40;5.00;;;-0.80;99.90;;;;;;4857540;29;20279;-56
2023/04/04 04:16:58;;;;;;;7.27;4.67;;;-0.80;99.90;;;;;;4857287;29;20277;-56
2023/04/04 04:19:26;;;;;;;9.17;4.60;;;-0.80;99.90;;;;;;4856642;29;20573;-56
2023/04/04 04:21:54;;;;;;;9.77;5.00;;;-0.80;99.90;;;;;;4860263;29;20706;-56
2023/04/04 04:24:23;;;;;;;5.93;4.30;;;-0.80;99.90;;;;;;4855538;29;20231;-56
2023/04/04 04:26:51;;;;;;;11.77;4.87;;;-0.80;99.90;;;;;;4856749;29;20227;-56
2023/04/04 04:29:19;;;;;;;5.37;4.67;;;-0.80;99.90;;;;;;4853049;29;20560;-55
2023/04/04 04:31:47;;;;;;;12.80;4.90;;;-0.80;99.90;;;;;;4856788;29;20604;-55
2023/04/04 04:34:17;;;;;;;5.23;4.73;;;-0.80;99.90;;;;;;4855078;29;20200;-56
2023/04/04 04:36:46;;;;;;;7.20;4.70;;;-0.80;99.90;;;;;;4855623;29;20272;-55
2023/04/04 04:39:14;;;;;;;8.50;4.80;;;-0.80;99.90;;;;;;4854219;29;20220;-53
2023/04/04 04:41:42;;;;;;;9.00;4.87;;;-0.80;99.90;;;;;;4860264;29;20603;-54
2023/04/04 04:44:10;;;;;;;15.23;4.87;;;-0.80;99.90;;;;;;4857232;29;20231;-55
2023/04/04 04:46:39;;;;;;;7.97;4.83;;;-0.90;99.90;;;;;;4853672;29;20251;-55
2023/04/04 04:49:07;;;;;;;5.67;4.93;;;-0.90;99.90;;;;;;4858840;29;20214;-56
2023/04/04 04:51:37;;;;;;;8.77;4.83;;;-0.90;99.90;;;;;;4850303;29;20320;-55
2023/04/04 04:54:06;;;;;;;7.37;5.10;;;-1.00;99.90;;;;;;4858009;29;20223;-54
2023/04/04 04:56:34;;;;;;;15.03;5.03;;;-1.00;99.90;;;;;;4854680;29;20263;-56
2023/04/04 04:59:02;;;;;;;6.40;5.00;;;-1.10;99.90;;;;;;4858783;29;20223;-56
2023/04/04 05:01:31;;;;;;;11.93;5.30;;;-1.10;99.90;;;;;;4857215;29;20232;-55
2023/04/04 05:04:00;;;;;;;6.73;5.00;;;-1.10;99.90;;;;;;4858295;29;20230;-56
2023/04/04 05:06:28;;;;;;;9.90;4.80;;;-1.00;99.90;;;;;;4856183;29;20228;-56
2023/04/04 05:08:58;;;;;;;6.67;4.90;;;-1.00;99.90;;;;;;4849439;29;22233;-56
2023/04/04 05:11:26;;;;;;;7.30;5.37;;;-1.00;99.90;;;;;;4853038;29;20247;-54
2023/04/04 05:13:56;;;;;;;8.60;5.00;;;-1.00;99.90;;;;;;4853414;29;20224;-53
2023/04/04 05:16:24;;;;;;;10.50;5.67;;;-1.10;99.90;;;;;;4853210;29;20231;-55
2023/04/04 05:18:52;;;;;;;7.00;5.33;;;-1.10;99.90;;;;;;4858336;29;20714;-55
2023/04/04 05:21:20;;;;;;;8.93;5.40;;;-1.20;99.90;;;;;;4850988;29;20725;-54
2023/04/04 05:23:49;;;;;;;6.67;5.47;;;-1.20;99.90;;;;;;4858990;29;20291;-54
2023/04/04 05:26:18;;;;;;;9.87;5.47;;;-1.20;99.90;;;;;;4851850;29;20227;-55
2023/04/04 05:28:46;;;;;;;8.77;5.20;;;-1.20;99.90;;;;;;4870182;29;20229;-53
2023/04/04 05:31:15;;;;;;;8.03;5.70;;;-1.10;99.90;;;;;;4857859;29;20192;-55
2023/04/04 05:33:44;;;;;;;11.67;5.87;;;-1.10;99.90;;;;;;4853826;29;20759;-54
2023/04/04 05:36:12;;;;;;;9.93;5.73;;;-1.10;99.90;;;;;;4851675;29;20235;-54
2023/04/04 05:38:40;;;;;;;9.37;6.03;;;-1.10;99.90;;;;;;4858350;29;20615;-54
2023/04/04 05:41:09;;;;;;;10.17;6.10;;;-1.10;99.90;;;;;;4848763;29;20243;-53
2023/04/04 05:43:39;;;;;;;12.83;6.20;;;-1.10;99.90;;;;;;4854477;29;20195;-53
2023/04/04 05:46:07;;;;;;;11.43;5.93;;;-1.10;99.90;;;;;;4852833;29;20644;-54
2023/04/04 05:48:35;;;;;;;11.23;5.90;;;-1.00;99.90;;;;;;4858150;29;20572;-54
2023/04/04 05:51:04;;;;;;;9.10;5.73;;;-0.90;99.90;;;;;;4855440;29;20711;-51
2023/04/04 05:53:32;;;;;;;12.90;5.60;;;-0.80;99.90;;;;;;4855398;29;20263;-54
2023/04/04 05:56:01;;;;;;;9.47;5.93;;;-0.70;99.90;;;;;;4857645;29;20227;-55
2023/04/04 05:58:29;;;;;;;10.17;6.17;;;-0.50;99.90;;;;;;4853557;29;20187;-55
2023/04/04 06:00:58;;;;;;;12.90;7.33;;;-0.40;99.90;;;;;;4850911;29;20617;-54
2023/04/04 06:03:27;;;;;;;15.73;6.67;;;-0.40;99.90;;;;;;4854537;29;20251;-53
2023/04/04 06:05:56;;;;;;;13.77;6.20;;;-0.20;99.90;;;;;;4852094;29;20235;-54
2023/04/04 06:08:26;;;;;;;9.40;5.83;;;0.00;99.90;;;;;;4857457;29;20319;-55
2023/04/04 06:10:54;;;;;;;9.60;5.67;;;0.20;99.90;;;;;;4855537;29;20282;-55
2023/04/04 06:13:23;;;;;;;11.37;6.07;;;0.30;99.90;;;;;;4858788;29;20224;-54
2023/04/04 06:15:51;;;;;;;11.73;5.70;;;0.50;99.90;;;;;;4858653;29;20269;-54
2023/04/04 06:18:21;;;;;;;10.63;5.90;;;0.70;99.90;;;;;;4855756;29;22106;-56
2023/04/04 06:20:49;;;;;;;20.43;5.67;;;0.90;99.90;;;;;;4856250;29;20284;-56
2023/04/04 06:23:17;;;;;;;17.73;5.83;;;1.10;99.90;;;;;;4856392;29;20231;-56
2023/04/04 06:25:46;;;;;;;8.37;5.20;;;1.30;99.90;;;;;;4853589;29;20743;-55
2023/04/04 06:28:16;;;;;;;10.30;5.30;;;1.40;99.90;;;;;;4854272;29;20276;-55
2023/04/04 06:30:44;;;;;;;17.17;5.20;;;1.50;99.90;;;;;;4856096;29;20231;-57
2023/04/04 06:33:13;;;;;;;6.17;4.97;;;1.60;99.90;;;;;;4847720;29;20655;-54
2023/04/04 06:35:44;;;;;;;7.23;4.93;;;1.80;99.90;;;;;;4856976;29;20295;-54
2023/04/04 06:38:12;;;;;;;9.80;5.00;;;2.40;99.90;;;;;;4857628;29;20235;-55
2023/04/04 06:40:41;;;;;;;11.93;4.80;;;3.10;99.90;;;;;;4855180;29;20211;-56
2023/04/04 06:43:09;;;;;;;12.87;4.90;;;3.80;99.90;;;;;;4855828;29;20203;-57
2023/04/04 06:45:37;;;;;;;4.93;4.33;;;4.30;99.90;;;;;;4855922;29;20227;-54
2023/04/04 06:48:05;;;;;;;9.77;5.00;;;4.20;99.90;;;;;;4856807;29;20227;-56
2023/04/04 06:50:35;;;;;;;10.70;4.90;;;4.30;99.90;;;;;;4851608;29;20227;-55
2023/04/04 06:53:05;;;;;;;7.10;4.20;;;4.50;99.90;;;;;;4855261;29;20250;-55
2023/04/04 06:55:34;;;;;;;6.43;4.00;;;4.70;99.90;;;;;;4857534;29;20204;-57
2023/04/04 06:58:02;;;;;;;11.57;4.70;;;4.90;99.90;;;;;;4856011;29;20199;-57
2023/04/04 07:00:30;;;;;;;7.77;4.87;;;4.70;99.90;;;;;;4848706;29;20275;-57
2023/04/04 07:03:00;;;;;;;7.83;4.10;;;4.80;99.90;;;;;;4854529;29;20287;-57
2023/04/04 07:05:29;;;;;;;10.67;4.53;;;4.80;99.90;;;;;;4855798;29;20227;-57
2023/04/04 07:07:57;;;;;;;6.40;4.67;;;5.20;99.90;;;;;;4858630;29;20295;-58
2023/04/04 07:10:26;;;;;;;6.97;4.37;;;5.70;99.90;;;;;;4858624;29;20203;-57
2023/04/04 07:12:55;;;;;;;11.97;4.00;;;5.70;99.90;;;;;;4869741;29;20243;-58
2023/04/04 07:15:23;;;;;;;7.70;4.40;;;5.80;99.90;;;;;;4858548;29;21946;-58
2023/04/04 07:17:51;;;;;;;9.00;4.60;;;6.10;99.90;;;;;;4855533;29;20227;-58
2023/04/04 07:20:20;;;;;;;10.53;5.50;;;6.70;99.90;;;;;;4861738;29;20303;-57
2023/04/04 07:22:49;;;;;;;6.00;4.67;;;7.30;99.90;;;;;;4854407;29;20207;-57
2023/04/04 07:25:17;;;;;;;10.30;4.93;;;8.00;99.90;;;;;;4859072;29;20256;-57
2023/04/04 07:27:47;;;;;;;5.40;4.20;;;8.70;99.90;;;;;;4854670;29;20271;-58
2023/04/04 07:30:16;;;;;;;8.50;4.27;;;9.00;99.90;;;;;;4858346;29;20273;-58
2023/04/04 07:32:44;;;;;;;8.80;4.87;;;9.00;99.90;;;;;;4856608;29;20238;-57
2023/04/04 07:35:13;;;;;;;6.13;3.97;;;9.00;99.90;;;;;;4855006;29;20249;-57
2023/04/04 07:37:41;;;;;;;4.27;3.87;;;9.20;99.90;;;;;;4854276;29;20728;-58
2023/04/04 07:40:10;;;;;;;9.07;4.20;;;9.70;99.90;;;;;;4852550;29;20199;-58
2023/04/04 07:42:44;;;;;;;4.73;4.00;;;9.90;99.90;;;;;;4852238;29;20219;-58
2023/04/04 07:45:14;;;;;;;5.50;3.67;;;9.80;99.90;;;;;;4849851;29;20231;-59
2023/04/04 07:47:43;;;;;;;9.77;3.63;;;9.70;99.90;;;;;;4856048;29;20227;-58
2023/04/04 07:50:12;;;;;;;8.60;3.63;;;10.00;99.90;;;;;;4854342;29;20219;-58
2023/04/04 07:52:40;;;;;;;3.97;3.57;;;10.20;99.90;;;;;;4852601;29;20207;-58
2023/04/04 07:55:09;;;;;;;3.67;3.00;;;10.40;99.90;;;;;;4856794;29;20672;-59
2023/04/04 07:57:38;;;;;;;6.80;3.43;;;10.50;99.90;;;;;;4857584;29;20713;-58
2023/04/04 08:00:08;;;;;;;6.47;3.90;;;10.60;99.90;;;;;;4859270;29;20239;-58
2023/04/04 08:02:38;;;;;;;5.83;3.10;;;10.70;99.90;;;;;;4858989;29;20242;-58
2023/04/04 08:05:08;;;;;;;3.30;3.00;;;10.90;99.90;;;;;;4866357;29;20706;-58
2023/04/04 08:07:36;;;;;;;3.07;2.80;;;10.80;99.90;;;;;;4861099;29;20199;-58
2023/04/04 08:10:06;;;;;;;3.87;2.60;;;10.90;99.90;;;;;;4859206;29;20252;-58
2023/04/04 08:12:34;;;;;;;4.20;2.70;;;11.00;99.90;;;;;;4857031;29;20215;-58
2023/04/04 08:15:02;;;;;;;5.97;3.00;;;11.10;99.90;;;;;;4858179;29;20227;-58
2023/04/04 08:17:30;;;;;;;4.37;2.73;;;11.20;99.90;;;;;;4858371;29;20646;-58
2023/04/04 08:20:00;;;;;;;3.70;2.80;;;11.30;99.90;;;;;;4852639;29;20269;-58
2023/04/04 08:22:28;;;;;;;5.10;2.73;;;11.50;99.90;;;;;;4859894;29;20220;-58
2023/04/04 08:24:56;;;;;;;2.43;2.23;;;11.60;99.90;;;;;;4856168;29;20254;-58
2023/04/04 08:27:24;;;;;;;3.43;2.63;;;11.90;99.90;;;;;;4860349;29;20313;-58
2023/04/04 08:29:52;;;;;;;6.07;3.00;;;12.10;99.90;;;;;;4858151;29;20231;-58
2023/04/04 08:32:21;;;;;;;4.27;2.60;;;12.30;99.90;;;;;;4856709;29;20283;-58
2023/04/04 08:34:49;;;;;;;2.73;2.40;;;12.80;99.90;;;;;;4860181;29;20595;-58
2023/04/04 08:37:19;;;;;;;2.90;2.63;;;12.90;99.90;;;;;;4862639;29;20616;-59
2023/04/04 08:39:47;;;;;;;5.00;2.63;;;12.70;99.90;;;;;;4860810;29;20280;-58
2023/04/04 08:42:19;;;;;;;8.73;3.20;;;13.10;99.90;;;;;;4857191;29;20623;-59
2023/04/04 08:44:49;;;;;;;3.73;3.07;;;13.20;99.90;;;;;;4855290;29;20221;-59
2023/04/04 08:47:20;;;;;;;3.40;2.80;;;13.40;99.90;;;;;;4859698;29;20283;-58
2023/04/04 08:49:51;;;;;;;6.27;3.10;;;13.50;99.60;;;;;;4864560;29;20188;-59
2023/04/04 08:52:23;;;;;;;3.87;2.80;;;13.50;99.00;;;;;;4861133;29;20257;-59
2023/04/04 08:54:53;;;;;;;3.87;2.80;;;13.30;99.70;;;;;;4857114;29;21030;-59
2023/04/04 08:57:22;;;;;;;4.93;2.60;;;13.40;99.90;;;;;;4859684;29;20225;-59
2023/04/04 08:59:50;;;;;;;2.80;2.60;;;13.80;98.70;;;;;;4856090;29;20271;-59
2023/04/04 09:02:26;;;;;;;2.60;2.40;;;13.70;98.10;;;;;;4858781;29;20634;-60
2023/04/04 09:04:56;;;;;;;3.27;2.70;;;13.80;97.80;;;;;;4848733;29;20239;-59
2023/04/04 09:07:35;;;;;;;5.00;3.27;;;13.90;98.30;;;;;;4854823;29;20290;-59
2023/04/04 09:10:09;;;;;;;4.27;2.53;;;13.80;97.70;;;;;;4854741;29;20258;-59
2023/04/04 09:12:39;;;;;;;3.57;2.20;;;13.60;98.20;;;;;;4854573;29;20224;-59
2023/04/04 09:15:09;;;;;;;3.23;2.27;;;13.70;96.90;;;;;;4853275;29;21038;-59
2023/04/04 09:17:37;;;;;;;3.60;2.50;;;13.60;96.70;;;;;;4853556;29;20294;-59
2023/04/04 09:20:36;;;;;;;2.83;2.60;;;13.70;96.90;;;;;;4859385;29;20239;-59
2023/04/04 09:23:08;;;;;;;5.03;2.70;;;13.60;96.40;;;;;;4858433;29;20672;-59
2023/04/04 09:25:37;;;;;;;2.43;2.23;;;13.80;96.30;;;;;;4860066;29;20627;-59
2023/04/04 09:28:05;;;;;;;2.80;2.60;;;13.80;96.00;;;;;;4858190;29;20616;-59
2023/04/04 09:30:34;;;;;;;2.60;2.40;;;14.00;94.80;;;;;;4855438;29;20279;-59
2023/04/04 09:33:05;;;;;;;4.37;2.50;;;14.10;94.50;;;;;;4867574;29;20215;-59
2023/04/04 09:35:35;;;;;;;2.50;2.30;;;13.80;94.70;;;;;;4861126;29;20759;-58
2023/04/04 09:38:03;;;;;;;3.57;2.30;;;14.20;94.60;;;;;;4860532;29;20227;-59
2023/04/04 09:40:35;;;;;;;3.83;2.40;;;14.20;93.90;;;;;;4860859;29;20226;-59
2023/04/04 09:43:04;;;;;;;4.13;2.73;;;14.10;94.20;;;;;;4853843;29;20220;-59
2023/04/04 09:45:35;;;;;;;2.97;2.57;;;14.10;94.70;;;;;;4860480;29;20224;-56
2023/04/04 09:48:06;;;;;;;5.10;2.43;;;14.40;94.10;;;;;;4863780;29;20288;-59
2023/04/04 09:50:34;;;;;;;3.17;2.90;;;14.10;94.80;;;;;;4856854;29;20308;-60
2023/04/04 09:53:02;;;;;;;2.47;2.37;;;14.10;95.80;;;;;;4859485;29;20265;-59
2023/04/04 09:55:36;;;;;;;2.60;2.40;;;14.20;95.10;;;;;;4853760;29;20208;-58
2023/04/04 09:58:13;;;;;;;4.47;2.50;;;14.40;94.50;;;;;;4857208;29;20251;-59
2023/04/04 10:00:47;;;;;;;3.47;2.67;;;14.20;93.90;;;;;;4856262;29;20291;-58
2023/04/04 10:03:16;;;;;;;3.77;2.80;;;14.50;94.00;;;;;;4855787;29;20256;-60
2023/04/04 10:05:45;;;;;;;2.50;2.40;;;14.90;94.90;;;;;;4856154;29;20264;-59
2023/04/04 10:08:15;;;;;;;3.03;2.50;;;15.10;93.20;;;;;;4857779;29;20231;-59
2023/04/04 10:10:49;;;;;;;5.17;2.67;;;15.70;92.70;;;;;;4854834;29;21656;-59
2023/04/04 10:13:35;;;;;;;4.43;2.80;;;15.70;91.60;;;;;;4853157;29;20191;-58
2023/04/04 10:16:05;;;;;;;2.77;2.43;;;15.80;90.70;;;;;;4856312;29;20295;-60
2023/04/04 10:18:34;;;;;;;2.70;2.50;;;16.10;92.20;;;;;;4854028;29;20713;-60
2023/04/04 10:21:05;;;;;;;4.37;2.57;;;16.10;90.90;;;;;;4854735;29;20231;-59
2023/04/04 10:23:37;;;;;;;5.53;2.50;;;16.20;90.80;;;;;;4851906;29;20591;-59
2023/04/04 10:26:07;;;;;;;5.77;2.90;;;15.10;89.60;;;;;;4856538;29;20310;-59
2023/04/04 10:28:35;;;;;;;4.40;2.80;;;14.80;91.00;;;;;;4857144;29;20204;-59
2023/04/04 10:31:16;;;;;;;3.80;2.77;;;15.30;93.30;;;;;;4854697;29;20210;-60
2023/04/04 10:33:50;;;;;;;3.67;2.60;;;16.00;92.30;;;;;;4858175;29;20230;-59
2023/04/04 10:36:22;;;;;;;6.93;2.70;;;16.30;91.90;;;;;;4860233;29;20299;-60
2023/04/04 10:38:59;;;;;;;4.17;2.50;;;16.70;91.20;;;;;;4858166;29;20227;-59
2023/04/04 10:41:32;;;;;;;2.53;2.23;;;16.90;86.80;;;;;;4851134;29;20219;-59
2023/04/04 10:44:08;;;;;;;3.23;2.93;;;16.30;86.10;;;;;;4856710;29;20250;-59
2023/04/04 10:46:41;;;;;;;2.83;2.47;;;16.80;91.10;;;;;;4856763;29;20214;-59
2023/04/04 10:49:10;;;;;;;2.80;2.60;;;16.50;84.70;;;;;;4858613;29;20595;-59
2023/04/04 10:51:39;;;;;;;2.80;2.60;;;16.10;88.00;;;;;;4855895;29;20267;-60
2023/04/04 10:54:23;;;;;;;3.17;2.43;;;16.00;88.20;;;;;;4852841;29;20313;-59
2023/04/04 10:56:53;;;;;;;2.60;2.47;;;16.60;89.70;;;;;;4852615;29;20355;-57
2023/04/04 10:59:25;;;;;;;3.30;2.50;;;16.50;88.50;;;;;;4856821;29;20684;-59
2023/04/04 11:01:58;;;;;;;3.57;2.87;;;16.30;88.50;;;;;;4866871;29;20235;-60
2023/04/04 11:04:33;;;;;;;4.60;2.70;;;15.90;84.20;;;;;;4857053;29;20220;-59
2023/04/04 11:07:13;;;;;;;3.40;3.10;;;15.90;85.70;;;;;;4852971;29;20353;-59
2023/04/04 11:09:52;;;;;;;3.17;2.80;;;16.30;89.40;;;;;;4854238;29;20255;-60
2023/04/04 11:12:30;;;;;;;3.03;2.77;;;16.60;86.20;;;;;;4855257;29;20672;-60
2023/04/04 11:15:08;;;;;;;2.97;2.77;;;16.40;84.80;;;;;;4855644;29;20279;-59
2023/04/04 11:17:54;;;;;;;4.63;2.93;;;16.20;85.30;;;;;;4858717;29;20222;-59
2023/04/04 11:20:24;;;;;;;5.30;2.80;;;15.60;89.80;;;;;;4853869;29;20231;-59
2023/04/04 11:23:05;;;;;;;4.57;3.10;;;16.10;85.90;;;;;;4855571;29;20195;-59
2023/04/04 11:25:36;;;;;;;3.50;2.83;;;15.90;86.40;;;;;;4857297;29;20581;-58
2023/04/04 11:28:08;;;;;;;4.30;2.80;;;15.80;88.70;;;;;;4857190;29;20260;-60
2023/04/04 11:30:43;;;;;;;4.70;2.90;;;15.70;85.00;;;;;;4852296;29;20267;-60
2023/04/04 11:33:14;;;;;;;3.27;2.93;;;16.10;88.30;;;;;;4844710;29;20238;-60
2023/04/04 11:35:47;;;;;;;3.03;2.77;;;15.60;85.50;;;;;;4849840;29;20220;-59
2023/04/04 11:38:16;;;;;;;4.70;2.90;;;15.70;88.10;;;;;;4855547;29;20235;-59
2023/04/04 11:40:55;;;;;;;3.83;3.00;;;15.50;86.80;;;;;;4858318;29;20191;-59
2023/04/04 11:43:27;;;;;;;3.27;2.97;;;15.20;89.30;;;;;;4859351;29;20278;-59
2023/04/04 11:46:07;;;;;;;2.97;2.67;;;15.50;87.60;;;;;;4870843;29;20223;-59
2023/04/04 11:48:37;;;;;;;3.77;3.33;;;15.30;88.70;;;;;;4856378;29;20232;-59
2023/04/04 11:51:07;;;;;;;3.83;3.30;;;14.90;87.40;;;;;;4850328;29;20774;-60
2023/04/04 11:53:35;;;;;;;4.83;3.17;;;14.60;91.00;;;;;;4852611;29;20308;-59
2023/04/04 11:56:03;;;;;;;4.70;3.00;;;14.40;89.10;;;;;;4857374;29;20234;-59
2023/04/04 11:58:35;;;;;;;4.17;3.47;;;14.50;90.70;;;;;;4858758;29;20519;-59
2023/04/04 12:01:05;;;;;;;3.63;3.30;;;14.60;90.10;;;;;;4853004;29;20245;-60
2023/04/04 12:03:35;;;;;;;5.20;3.13;;;15.00;90.50;;;;;;4856708;29;20282;-59
2023/04/04 12:06:03;;;;;;;6.30;3.40;;;15.40;89.50;;;;;;4856834;29;20235;-59
2023/04/04 12:08:33;;;;;;;7.50;3.10;;;15.30;88.70;;;;;;4856817;29;20297;-59
2023/04/04 12:11:05;;;;;;;3.30;3.10;;;14.90;91.80;;;;;;4852792;29;20325;-59
2023/04/04 12:13:35;;;;;;;5.20;3.60;;;15.30;89.50;;;;;;4849909;29;20609;-58
2023/04/04 12:16:03;;;;;;;3.87;3.00;;;15.20;88.10;;;;;;4854350;29;20227;-59
2023/04/04 12:18:32;;;;;;;3.90;3.30;;;15.00;90.70;;;;;;4854523;29;20254;-59
2023/04/04 12:21:00;;;;;;;3.60;3.40;;;14.60;90.00;;;;;;4852924;29;20301;-59
2023/04/04 12:23:35;;;;;;;8.20;3.87;;;14.10;90.40;;;;;;4860618;29;20223;-59
2023/04/04 12:26:05;;;;;;;4.37;3.43;;;13.40;88.70;;;;;;4856278;29;20233;-59
2023/04/04 12:28:36;;;;;;;4.00;3.60;;;13.50;90.50;;;;;;4855028;29;20203;-58
2023/04/04 12:31:06;;;;;;;5.97;3.47;;;13.70;90.90;;;;;;4857798;29;20199;-59
2023/04/04 12:33:36;;;;;;;3.90;3.60;;;13.30;90.50;;;;;;4859264;29;20227;-59
2023/04/04 12:36:05;;;;;;;6.43;3.73;;;13.10;91.60;;;;;;4859380;29;20326;-59
2023/04/04 12:38:34;;;;;;;4.33;3.33;;;13.60;92.40;;;;;;4860455;29;20297;-59
2023/04/04 12:41:03;;;;;;;4.87;3.77;;;13.30;90.90;;;;;;4857020;29;20276;-59
2023/04/04 12:43:32;;;;;;;3.80;3.50;;;13.60;90.70;;;;;;4858744;29;20238;-59
2023/04/04 12:46:02;;;;;;;6.60;4.07;;;13.50;94.00;;;;;;4859464;29;20228;-59
2023/04/04 12:48:33;;;;;;;4.63;3.60;;;13.50;91.60;;;;;;4860024;29;20249;-58
2023/04/04 12:51:01;;;;;;;3.60;3.40;;;12.90;90.70;;;;;;4859428;29;20656;-59
2023/04/04 12:53:31;;;;;;;5.17;3.60;;;12.90;95.10;;;;;;4857438;29;20227;-60
2023/04/04 12:56:04;;;;;;;5.83;3.73;;;12.80;91.50;;;;;;4858345;29;20255;-58
2023/04/04 12:58:33;;;;;;;3.80;3.50;;;12.50;91.90;;;;;;4849430;29;20290;-59
2023/04/04 13:01:07;;;;;;;5.50;3.90;;;12.40;94.30;;;;;;4856335;29;20295;-59
2023/04/04 13:03:36;;;;;;;5.00;3.50;;;12.40;94.00;;;;;;4859419;29;20215;-59